createdAt,value
2019-03-25T00:00:35.570Z,996.18
2019-03-25T00:01:35.729Z,996.15
2019-03-25T00:02:35.900Z,996.12
2019-03-25T00:03:36.044Z,996.11
2019-03-25T00:04:36.200Z,996.10
2019-03-25T00:05:36.361Z,996.08
2019-03-25T00:06:36.512Z,996.06
2019-03-25T00:07:36.677Z,996.01
2019-03-25T00:08:36.822Z,996.03
2019-03-25T00:09:36.982Z,996.05
2019-03-25T00:10:37.135Z,996.03
2019-03-25T00:11:37.308Z,996.05
2019-03-25T00:12:37.453Z,996.07
2019-03-25T00:13:37.606Z,996.01
2019-03-25T00:14:37.783Z,996.03
2019-03-25T00:15:37.928Z,996.01
2019-03-25T00:16:38.083Z,996.09
2019-03-25T00:17:38.234Z,996.09
2019-03-25T00:18:38.396Z,996.06
2019-03-25T00:19:38.556Z,996.06
2019-03-25T00:20:38.712Z,996.05
2019-03-25T00:21:38.916Z,996.05
2019-03-25T00:22:39.044Z,996.02
2019-03-25T00:23:39.199Z,996.04
2019-03-25T00:24:39.385Z,995.95
2019-03-25T00:25:39.516Z,995.98
2019-03-25T00:26:39.672Z,995.93
2019-03-25T00:27:39.822Z,995.93
2019-03-25T00:28:39.984Z,995.96
2019-03-25T00:29:40.163Z,995.91
2019-03-25T00:30:40.314Z,995.90
2019-03-25T00:31:40.448Z,995.85
2019-03-25T00:32:40.627Z,995.84
2019-03-25T00:33:40.842Z,995.82
2019-03-25T00:34:40.948Z,995.81
2019-03-25T00:35:41.105Z,995.77
2019-03-25T00:36:41.270Z,995.75
2019-03-25T00:37:41.433Z,995.72
2019-03-25T00:38:41.597Z,995.73
2019-03-25T00:39:41.763Z,995.69
2019-03-25T00:40:41.925Z,995.65
2019-03-25T00:41:42.072Z,995.65
2019-03-25T00:42:42.282Z,995.70
2019-03-25T00:43:42.403Z,995.69
2019-03-25T00:44:42.551Z,995.70
2019-03-25T00:45:42.724Z,995.66
2019-03-25T00:46:42.905Z,995.66
2019-03-25T00:47:43.051Z,995.73
2019-03-25T00:48:43.197Z,995.71
2019-03-25T00:49:43.368Z,995.70
2019-03-25T00:50:43.519Z,995.68
2019-03-25T00:51:43.678Z,995.67
2019-03-25T00:52:43.836Z,995.66
2019-03-25T00:53:44.014Z,995.65
2019-03-25T00:54:49.941Z,995.66
2019-03-25T00:55:44.323Z,995.67
2019-03-25T00:56:44.495Z,995.64
2019-03-25T00:57:44.643Z,995.63
2019-03-25T00:58:44.823Z,995.56
2019-03-25T00:59:44.970Z,995.59
2019-03-25T01:00:45.143Z,995.61
2019-03-25T01:01:45.310Z,995.62
2019-03-25T01:02:45.463Z,995.58
2019-03-25T01:03:45.612Z,995.58
2019-03-25T01:04:45.762Z,995.55
2019-03-25T01:06:46.088Z,995.53
2019-03-25T01:08:46.402Z,995.50
2019-03-25T01:09:46.567Z,995.49
2019-03-25T01:10:46.733Z,995.47
2019-03-25T01:11:49.363Z,995.39
2019-03-25T01:12:47.054Z,995.42
2019-03-25T01:14:47.345Z,995.43
2019-03-25T01:15:47.552Z,995.43
2019-03-25T01:16:47.693Z,995.42
2019-03-25T01:17:47.817Z,995.40
2019-03-25T01:18:47.978Z,995.45
2019-03-25T01:19:48.146Z,995.40
2019-03-25T01:20:55.921Z,995.42
2019-03-25T01:21:48.455Z,995.39
2019-03-25T01:22:56.243Z,995.38
2019-03-25T01:23:48.785Z,995.38
2019-03-25T01:24:48.959Z,995.38
2019-03-25T01:25:49.128Z,995.38
2019-03-25T01:26:49.296Z,995.32
2019-03-25T01:27:49.469Z,995.36
2019-03-25T01:28:49.642Z,995.37
2019-03-25T01:29:49.821Z,995.41
2019-03-25T01:30:49.987Z,995.37
2019-03-25T01:31:50.154Z,995.37
2019-03-25T01:32:50.331Z,995.40
2019-03-25T01:33:50.555Z,995.38
2019-03-25T01:34:50.676Z,995.32
2019-03-25T01:35:50.838Z,995.34
2019-03-25T01:36:51.012Z,995.32
2019-03-25T01:37:51.184Z,995.35
2019-03-25T01:38:51.354Z,995.31
2019-03-25T01:39:51.537Z,995.31
2019-03-25T01:40:51.696Z,995.29
2019-03-25T01:41:51.865Z,995.30
2019-03-25T01:42:52.036Z,995.30
2019-03-25T01:43:52.214Z,995.26
2019-03-25T01:44:52.381Z,995.25
2019-03-25T01:45:52.547Z,995.18
2019-03-25T01:46:52.719Z,995.22
2019-03-25T01:47:52.895Z,995.22
2019-03-25T01:48:53.066Z,995.22
2019-03-25T01:49:53.246Z,995.16
2019-03-25T01:50:53.412Z,995.16
2019-03-25T01:51:53.582Z,995.12
2019-03-25T01:52:53.753Z,995.10
2019-03-25T01:53:53.929Z,995.10
2019-03-25T01:54:54.094Z,995.09
2019-03-25T01:55:54.268Z,995.11
2019-03-25T01:56:54.432Z,995.10
2019-03-25T01:57:54.619Z,995.07
2019-03-25T01:58:54.792Z,995.04
2019-03-25T01:59:54.959Z,995.02
2019-03-25T02:00:55.139Z,995.08
2019-03-25T02:01:55.315Z,994.99
2019-03-25T02:02:55.482Z,995.03
2019-03-25T02:03:55.649Z,995.01
2019-03-25T02:04:55.826Z,995.06
2019-03-25T02:05:55.991Z,994.99
2019-03-25T02:06:56.166Z,995.03
2019-03-25T02:07:56.345Z,995.01
2019-03-25T02:08:56.505Z,995.01
2019-03-25T02:09:56.677Z,994.99
2019-03-25T02:10:56.850Z,994.97
2019-03-25T02:11:57.025Z,994.99
2019-03-25T02:12:57.205Z,994.94
2019-03-25T02:13:57.372Z,994.90
2019-03-25T02:14:57.540Z,994.89
2019-03-25T02:15:57.724Z,994.86
2019-03-25T02:16:57.892Z,994.81
2019-03-25T02:17:58.062Z,994.80
2019-03-25T02:18:58.232Z,994.78
2019-03-25T02:19:58.405Z,994.79
2019-03-25T02:20:58.576Z,994.78
2019-03-25T02:21:58.738Z,994.77
2019-03-25T02:22:59.134Z,994.74
2019-03-25T02:23:59.077Z,994.68
2019-03-25T02:24:59.245Z,994.72
2019-03-25T02:25:59.428Z,994.73
2019-03-25T02:26:59.593Z,994.68
2019-03-25T02:27:59.762Z,994.66
2019-03-25T02:28:59.939Z,994.72
2019-03-25T02:30:00.124Z,994.72
2019-03-25T02:31:00.281Z,994.70
2019-03-25T02:32:00.457Z,994.68
2019-03-25T02:33:00.630Z,994.72
2019-03-25T02:34:00.799Z,994.68
2019-03-25T02:35:00.971Z,994.61
2019-03-25T02:36:01.153Z,994.57
2019-03-25T02:37:01.320Z,994.61
2019-03-25T02:38:01.488Z,994.58
2019-03-25T02:39:01.665Z,994.55
2019-03-25T02:40:01.859Z,994.54
2019-03-25T02:41:02.041Z,994.60
2019-03-25T02:42:02.198Z,994.60
2019-03-25T02:43:02.383Z,994.53
2019-03-25T02:44:02.530Z,994.52
2019-03-25T02:45:02.715Z,994.47
2019-03-25T02:46:02.868Z,994.44
2019-03-25T02:47:03.049Z,994.46
2019-03-25T02:48:03.214Z,994.49
2019-03-25T02:49:03.392Z,994.43
2019-03-25T02:50:03.559Z,994.44
2019-03-25T02:51:03.732Z,994.40
2019-03-25T02:52:03.899Z,994.37
2019-03-25T02:53:04.080Z,994.42
2019-03-25T02:54:04.244Z,994.36
2019-03-25T02:55:04.414Z,994.35
2019-03-25T02:56:04.589Z,994.39
2019-03-25T02:57:04.761Z,994.38
2019-03-25T02:58:04.940Z,994.36
2019-03-25T03:01:37.386Z,994.19
2019-03-25T03:02:37.532Z,994.20
2019-03-25T03:03:37.694Z,994.21
2019-03-25T03:04:37.868Z,994.18
2019-03-25T03:05:38.034Z,994.17
2019-03-25T03:06:38.206Z,994.19
2019-03-25T03:07:38.384Z,994.16
2019-03-25T03:08:38.551Z,994.14
2019-03-25T03:09:38.737Z,994.11
2019-03-25T03:10:38.891Z,994.12
2019-03-25T03:11:39.061Z,994.08
2019-03-25T03:12:39.228Z,994.15
2019-03-25T03:13:39.395Z,994.12
2019-03-25T03:14:39.564Z,994.08
2019-03-25T03:15:39.735Z,994.05
2019-03-25T03:16:39.912Z,994.01
2019-03-25T03:17:40.071Z,994.02
2019-03-25T03:18:40.247Z,994.03
2019-03-25T03:19:40.415Z,993.97
2019-03-25T03:20:40.616Z,994.02
2019-03-25T03:21:40.744Z,994.00
2019-03-25T03:22:40.917Z,994.02
2019-03-25T03:23:41.103Z,993.94
2019-03-25T03:24:41.249Z,993.90
2019-03-25T03:25:55.726Z,993.88
2019-03-25T03:26:41.593Z,993.87
2019-03-25T03:27:41.758Z,993.85
2019-03-25T03:28:41.929Z,993.91
2019-03-25T03:29:42.109Z,993.89
2019-03-25T03:30:42.266Z,993.82
2019-03-25T03:31:42.438Z,993.81
2019-03-25T03:32:42.612Z,993.78
2019-03-25T03:33:42.790Z,993.78
2019-03-25T03:34:42.974Z,993.81
2019-03-25T03:35:46.364Z,993.75
2019-03-25T03:36:43.293Z,993.74
2019-03-25T03:37:43.462Z,993.76
2019-03-25T03:38:43.623Z,993.74
2019-03-25T03:39:43.795Z,993.71
2019-03-25T03:40:43.967Z,993.68
2019-03-25T03:41:44.152Z,993.60
2019-03-25T03:42:44.306Z,993.62
2019-03-25T03:43:44.534Z,993.58
2019-03-25T03:44:44.640Z,993.56
2019-03-25T03:45:44.807Z,993.59
2019-03-25T03:46:45.003Z,993.57
2019-03-25T03:47:45.145Z,993.53
2019-03-25T03:48:45.317Z,993.40
2019-03-25T03:49:45.493Z,993.27
2019-03-25T03:50:45.649Z,993.20
2019-03-25T03:51:45.821Z,993.22
2019-03-25T03:52:45.987Z,993.14
2019-03-25T03:53:46.160Z,993.17
2019-03-25T03:54:46.336Z,993.13
2019-03-25T03:55:46.500Z,993.12
2019-03-25T03:56:46.670Z,993.03
2019-03-25T03:57:46.838Z,993.06
2019-03-25T03:58:47.005Z,993.05
2019-03-25T03:59:47.177Z,993.08
2019-03-25T04:00:47.355Z,993.19
2019-03-25T04:01:47.518Z,993.22
2019-03-25T04:02:47.686Z,993.24
2019-03-25T04:03:47.843Z,993.27
2019-03-25T04:04:48.034Z,993.28
2019-03-25T04:05:48.192Z,993.35
2019-03-25T04:06:48.359Z,993.34
2019-03-25T04:07:48.529Z,993.36
2019-03-25T04:08:48.698Z,993.35
2019-03-25T04:09:48.865Z,993.32
2019-03-25T04:10:50.248Z,993.27
2019-03-25T04:11:49.154Z,993.27
2019-03-25T04:12:49.330Z,993.21
2019-03-25T04:13:49.505Z,993.18
2019-03-25T04:14:49.680Z,993.14
2019-03-25T04:15:49.845Z,993.12
2019-03-25T04:16:50.010Z,993.08
2019-03-25T04:17:50.186Z,992.96
2019-03-25T04:18:50.352Z,992.88
2019-03-25T04:19:50.515Z,992.79
2019-03-25T04:20:50.693Z,992.94
2019-03-25T04:21:50.872Z,992.99
2019-03-25T04:22:51.026Z,993.10
2019-03-25T04:23:51.197Z,993.14
2019-03-25T04:24:51.403Z,993.10
2019-03-25T04:25:51.520Z,993.06
2019-03-25T04:26:51.690Z,993.10
2019-03-25T04:27:51.860Z,993.14
2019-03-25T04:28:52.031Z,993.18
2019-03-25T04:29:52.208Z,993.18
2019-03-25T04:30:52.361Z,993.07
2019-03-25T04:31:52.535Z,993.04
2019-03-25T04:32:52.717Z,993.02
2019-03-25T04:33:52.866Z,993.01
2019-03-25T04:34:53.035Z,993.00
2019-03-25T04:35:53.208Z,993.03
2019-03-25T04:36:53.374Z,993.07
2019-03-25T04:37:56.300Z,993.06
2019-03-25T04:38:53.716Z,993.04
2019-03-25T04:39:53.886Z,992.96
2019-03-25T04:40:54.058Z,992.93
2019-03-25T04:41:54.235Z,992.87
2019-03-25T04:42:54.401Z,992.92
2019-03-25T04:43:54.713Z,992.99
2019-03-25T04:44:54.739Z,992.93
2019-03-25T04:46:02.578Z,992.96
2019-03-25T04:47:03.684Z,992.95
2019-03-25T04:48:02.849Z,992.97
2019-03-25T04:48:55.381Z,992.99
2019-03-25T04:49:55.560Z,993.06
2019-03-25T04:50:55.724Z,993.05
2019-03-25T04:51:55.900Z,993.01
2019-03-25T04:52:56.073Z,993.11
2019-03-25T04:53:56.243Z,993.03
2019-03-25T04:54:56.407Z,992.95
2019-03-25T04:55:56.579Z,992.90
2019-03-25T04:56:56.758Z,992.94
2019-03-25T04:57:56.919Z,992.91
2019-03-25T04:58:57.095Z,992.93
2019-03-25T04:59:57.272Z,992.94
2019-03-25T05:00:57.429Z,992.90
2019-03-25T05:01:57.611Z,992.83
2019-03-25T05:02:57.769Z,992.83
2019-03-25T05:03:57.942Z,992.77
2019-03-25T05:04:58.111Z,992.78
2019-03-25T05:05:58.282Z,992.79
2019-03-25T05:06:58.452Z,992.78
2019-03-25T05:07:58.621Z,992.70
2019-03-25T05:08:58.797Z,992.73
2019-03-25T05:09:58.960Z,992.78
2019-03-25T05:10:59.139Z,992.82
2019-03-25T05:11:59.305Z,992.81
2019-03-25T05:12:59.483Z,992.86
2019-03-25T05:13:59.650Z,992.91
2019-03-25T05:14:59.816Z,992.92
2019-03-25T05:15:59.994Z,992.86
2019-03-25T05:17:00.176Z,992.84
2019-03-25T05:18:00.329Z,992.78
2019-03-25T05:19:00.560Z,992.82
2019-03-25T05:20:00.657Z,992.79
2019-03-25T05:21:00.823Z,992.80
2019-03-25T05:22:00.996Z,992.81
2019-03-25T05:23:01.171Z,992.79
2019-03-25T05:24:01.349Z,992.74
2019-03-25T05:25:01.514Z,992.77
2019-03-25T05:26:01.695Z,992.79
2019-03-25T05:27:01.852Z,992.75
2019-03-25T05:28:02.024Z,992.75
2019-03-25T05:29:02.219Z,992.77
2019-03-25T05:30:02.361Z,992.71
2019-03-25T05:31:02.528Z,992.62
2019-03-25T05:32:02.700Z,992.58
2019-03-25T05:33:02.862Z,992.59
2019-03-25T05:34:03.038Z,992.53
2019-03-25T05:35:03.200Z,992.51
2019-03-25T05:36:03.376Z,992.47
2019-03-25T05:37:03.535Z,992.48
2019-03-25T05:38:03.709Z,992.45
2019-03-25T05:39:03.879Z,992.42
2019-03-25T05:40:04.047Z,992.46
2019-03-25T05:41:04.222Z,992.45
2019-03-25T05:42:04.417Z,992.49
2019-03-25T05:43:04.550Z,992.47
2019-03-25T05:44:04.715Z,992.46
2019-03-25T05:45:04.932Z,992.44
2019-03-25T05:46:05.049Z,992.40
2019-03-25T05:47:05.223Z,992.41
2019-03-25T05:48:05.415Z,992.42
2019-03-25T05:49:05.573Z,992.38
2019-03-25T05:50:05.753Z,992.37
2019-03-25T05:51:05.912Z,992.37
2019-03-25T05:52:06.085Z,992.33
2019-03-25T05:53:06.255Z,992.32
2019-03-25T05:54:06.430Z,992.36
2019-03-25T05:55:06.605Z,992.44
2019-03-25T05:56:06.767Z,992.45
2019-03-25T05:57:06.935Z,992.44
2019-03-25T05:58:07.108Z,992.41
2019-03-25T05:59:07.287Z,992.40
2019-03-25T06:00:07.461Z,992.38
2019-03-25T06:01:07.607Z,992.38
2019-03-25T06:03:07.953Z,992.34
2019-03-25T06:04:08.123Z,992.37
2019-03-25T06:05:08.292Z,992.37
2019-03-25T06:06:08.468Z,992.37
2019-03-25T06:07:08.634Z,992.33
2019-03-25T06:08:08.817Z,992.37
2019-03-25T06:09:08.970Z,992.37
2019-03-25T06:10:09.151Z,992.39
2019-03-25T06:11:09.317Z,992.39
2019-03-25T06:12:09.487Z,992.45
2019-03-25T06:13:09.660Z,992.47
2019-03-25T06:14:09.824Z,992.52
2019-03-25T06:15:09.997Z,992.54
2019-03-25T06:16:10.167Z,992.57
2019-03-25T06:17:10.362Z,992.61
2019-03-25T06:18:10.502Z,992.63
2019-03-25T06:19:10.677Z,992.66
2019-03-25T06:20:10.837Z,992.73
2019-03-25T06:21:11.009Z,992.70
2019-03-25T06:22:11.169Z,992.70
2019-03-25T06:23:11.341Z,992.97
2019-03-25T06:24:11.516Z,993.01
2019-03-25T06:25:11.689Z,992.89
2019-03-25T06:26:11.849Z,992.98
2019-03-25T06:27:14.262Z,993.07
2019-03-25T06:28:12.186Z,993.18
2019-03-25T06:29:12.350Z,993.28
2019-03-25T06:30:12.517Z,993.26
2019-03-25T06:31:12.690Z,993.32
2019-03-25T06:32:12.853Z,993.10
2019-03-25T06:33:13.051Z,993.05
2019-03-25T06:34:13.184Z,992.97
2019-03-25T06:35:13.365Z,993.04
2019-03-25T06:36:13.565Z,993.08
2019-03-25T06:37:13.726Z,993.17
2019-03-25T06:38:13.891Z,993.18
2019-03-25T06:39:14.084Z,993.27
2019-03-25T06:40:14.227Z,993.24
2019-03-25T06:41:14.400Z,993.21
2019-03-25T06:42:14.557Z,993.10
2019-03-25T06:43:14.725Z,992.97
2019-03-25T06:44:14.898Z,992.91
2019-03-25T06:45:15.066Z,992.92
2019-03-25T06:46:15.237Z,992.82
2019-03-25T06:47:15.394Z,992.84
2019-03-25T06:48:15.570Z,992.83
2019-03-25T06:49:15.725Z,992.80
2019-03-25T06:50:15.899Z,992.86
2019-03-25T06:51:16.077Z,992.89
2019-03-25T06:52:16.233Z,992.85
2019-03-25T06:53:16.402Z,992.85
2019-03-25T06:54:16.580Z,992.93
2019-03-25T06:55:16.725Z,992.89
2019-03-25T06:56:16.882Z,992.88
2019-03-25T06:57:25.209Z,992.86
2019-03-25T06:58:17.234Z,992.87
2019-03-25T06:59:17.416Z,992.92
2019-03-25T07:00:17.560Z,992.93
2019-03-25T07:01:17.735Z,992.90
2019-03-25T07:02:17.900Z,992.92
2019-03-25T07:03:18.082Z,992.94
2019-03-25T07:04:18.248Z,992.93
2019-03-25T07:05:18.413Z,992.90
2019-03-25T07:06:18.584Z,992.95
2019-03-25T07:07:18.750Z,992.93
2019-03-25T07:08:18.925Z,992.91
2019-03-25T07:09:19.091Z,993.07
2019-03-25T07:10:19.261Z,992.96
2019-03-25T07:11:19.415Z,993.15
2019-03-25T07:12:19.595Z,993.19
2019-03-25T07:13:19.763Z,993.26
2019-03-25T07:14:19.945Z,993.32
2019-03-25T07:15:20.117Z,993.32
2019-03-25T07:16:20.297Z,993.38
2019-03-25T07:17:20.462Z,993.46
2019-03-25T07:18:20.633Z,993.50
2019-03-25T07:19:20.809Z,993.54
2019-03-25T07:20:20.980Z,993.52
2019-03-25T07:21:21.155Z,993.51
2019-03-25T07:22:21.340Z,993.54
2019-03-25T07:23:21.502Z,993.60
2019-03-25T07:24:21.678Z,993.56
2019-03-25T07:25:21.857Z,993.45
2019-03-25T07:26:22.029Z,993.40
2019-03-25T07:27:22.210Z,993.65
2019-03-25T07:28:22.383Z,993.63
2019-03-25T07:29:22.568Z,993.66
2019-03-25T07:30:22.749Z,993.53
2019-03-25T07:31:22.917Z,993.70
2019-03-25T07:32:23.096Z,993.65
2019-03-25T07:33:23.271Z,993.59
2019-03-25T07:34:23.450Z,993.69
2019-03-25T07:35:23.628Z,993.61
2019-03-25T07:36:23.813Z,993.49
2019-03-25T07:37:23.988Z,993.51
2019-03-25T07:38:24.163Z,993.47
2019-03-25T07:39:24.349Z,993.46
2019-03-25T07:40:24.513Z,993.43
2019-03-25T07:41:24.691Z,993.34
2019-03-25T07:42:24.871Z,993.36
2019-03-25T07:43:25.048Z,993.39
2019-03-25T07:44:25.224Z,993.36
2019-03-25T07:45:25.398Z,993.37
2019-03-25T07:46:25.579Z,993.32
2019-03-25T07:47:25.753Z,993.30
2019-03-25T07:48:25.938Z,993.33
2019-03-25T07:49:26.109Z,993.27
2019-03-25T07:50:26.284Z,993.24
2019-03-25T07:51:26.470Z,993.26
2019-03-25T07:52:26.644Z,993.24
2019-03-25T07:53:26.823Z,993.20
2019-03-25T07:54:27.016Z,993.25
2019-03-25T07:55:27.168Z,993.22
2019-03-25T07:56:27.367Z,993.42
2019-03-25T07:57:27.551Z,993.46
2019-03-25T07:58:27.699Z,993.32
2019-03-25T07:59:27.845Z,993.28
2019-03-25T08:00:28.049Z,993.23
2019-03-25T08:01:28.183Z,993.27
2019-03-25T08:02:28.358Z,993.27
2019-03-25T08:03:28.544Z,993.46
2019-03-25T08:04:28.715Z,993.27
2019-03-25T08:05:28.915Z,993.31
2019-03-25T08:06:29.071Z,993.30
2019-03-25T08:07:29.236Z,993.52
2019-03-25T08:08:29.431Z,993.35
2019-03-25T08:09:29.591Z,993.29
2019-03-25T08:10:29.776Z,993.28
2019-03-25T08:11:29.926Z,993.21
2019-03-25T08:12:30.120Z,993.23
2019-03-25T08:13:30.316Z,993.25
2019-03-25T08:14:30.429Z,993.26
2019-03-25T08:15:30.608Z,993.21
2019-03-25T08:16:30.792Z,993.25
2019-03-25T08:17:30.973Z,993.25
2019-03-25T08:18:31.143Z,993.40
2019-03-25T08:19:31.295Z,993.25
2019-03-25T08:20:31.455Z,993.25
2019-03-25T08:21:31.653Z,993.31
2019-03-25T08:22:31.811Z,993.26
2019-03-25T08:23:31.994Z,993.28
2019-03-25T08:24:32.125Z,993.23
2019-03-25T08:25:32.299Z,993.23
2019-03-25T08:26:32.474Z,993.25
2019-03-25T08:27:32.636Z,993.27
2019-03-25T08:28:32.809Z,993.20
2019-03-25T08:29:32.985Z,993.35
2019-03-25T08:30:33.171Z,993.36
2019-03-25T08:31:33.333Z,993.26
2019-03-25T08:32:33.493Z,993.24
2019-03-25T08:33:33.669Z,993.25
2019-03-25T08:34:33.841Z,993.24
2019-03-25T08:35:34.028Z,993.24
2019-03-25T08:36:34.192Z,993.27
2019-03-25T08:37:34.359Z,993.19
2019-03-25T08:38:34.535Z,993.22
2019-03-25T08:39:34.709Z,993.26
2019-03-25T08:40:34.908Z,993.26
2019-03-25T08:41:35.042Z,993.26
2019-03-25T08:42:35.214Z,993.23
2019-03-25T08:43:35.382Z,993.22
2019-03-25T08:44:35.534Z,993.26
2019-03-25T08:45:35.703Z,993.25
2019-03-25T08:46:35.912Z,993.24
2019-03-25T08:47:36.034Z,993.27
2019-03-25T08:48:36.209Z,993.29
2019-03-25T08:49:36.362Z,993.28
2019-03-25T08:50:36.527Z,993.29
2019-03-25T08:51:36.672Z,993.29
2019-03-25T08:52:36.827Z,993.24
2019-03-25T08:53:36.989Z,993.27
2019-03-25T08:54:37.990Z,993.35
2019-03-25T08:55:37.348Z,993.26
2019-03-25T08:56:37.458Z,993.23
2019-03-25T08:57:37.663Z,993.22
2019-03-25T08:58:37.853Z,993.18
2019-03-25T08:59:37.968Z,993.11
2019-03-25T09:00:38.125Z,993.14
2019-03-25T09:01:38.308Z,993.14
2019-03-25T09:02:38.497Z,993.17
2019-03-25T09:03:38.691Z,993.30
2019-03-25T09:04:38.840Z,993.19
2019-03-25T09:05:39.015Z,993.27
2019-03-25T09:06:39.202Z,993.18
2019-03-25T09:07:39.374Z,993.15
2019-03-25T09:08:39.507Z,993.28
2019-03-25T09:09:39.669Z,993.16
2019-03-25T09:10:39.826Z,993.18
2019-03-25T09:11:39.993Z,993.23
2019-03-25T09:12:40.158Z,993.21
2019-03-25T09:13:40.382Z,993.25
2019-03-25T09:14:40.489Z,993.24
2019-03-25T09:15:40.655Z,993.39
2019-03-25T09:16:40.830Z,993.40
2019-03-25T09:17:41.007Z,993.31
2019-03-25T09:18:41.150Z,993.30
2019-03-25T09:19:41.332Z,993.28
2019-03-25T09:20:41.491Z,993.10
2019-03-25T09:21:41.705Z,993.16
2019-03-25T09:22:41.834Z,993.16
2019-03-25T09:23:42.013Z,993.13
2019-03-25T09:24:42.225Z,993.02
2019-03-25T09:25:42.346Z,993.13
2019-03-25T09:26:42.489Z,993.13
2019-03-25T09:27:42.654Z,993.04
2019-03-25T09:28:42.869Z,992.99
2019-03-25T09:29:43.048Z,992.97
2019-03-25T09:30:43.177Z,993.02
2019-03-25T09:31:43.295Z,993.10
2019-03-25T09:32:43.518Z,992.92
2019-03-25T09:33:43.667Z,992.98
2019-03-25T09:34:43.810Z,992.98
2019-03-25T09:35:44.091Z,993.00
2019-03-25T09:36:44.166Z,992.98
2019-03-25T09:37:44.326Z,992.90
2019-03-25T09:38:44.523Z,992.93
2019-03-25T09:39:44.687Z,992.86
2019-03-25T09:40:44.838Z,992.82
2019-03-25T09:41:45.016Z,992.76
2019-03-25T09:42:45.179Z,992.81
2019-03-25T09:43:45.365Z,992.87
2019-03-25T09:44:45.572Z,992.78
2019-03-25T09:45:45.690Z,992.80
2019-03-25T09:46:45.850Z,992.87
2019-03-25T09:47:46.024Z,992.86
2019-03-25T09:48:46.199Z,992.81
2019-03-25T09:49:46.333Z,992.81
2019-03-25T09:50:46.501Z,992.79
2019-03-25T09:51:46.667Z,992.76
2019-03-25T09:52:46.834Z,992.77
2019-03-25T09:53:47.038Z,992.78
2019-03-25T09:54:47.189Z,992.80
2019-03-25T09:55:47.331Z,992.61
2019-03-25T09:56:47.517Z,992.73
2019-03-25T09:57:47.704Z,992.71
2019-03-25T09:58:47.827Z,992.65
2019-03-25T09:59:48.009Z,992.69
2019-03-25T10:00:48.207Z,992.69
2019-03-25T10:01:48.403Z,992.74
2019-03-25T10:02:48.606Z,992.75
2019-03-25T10:03:48.732Z,992.80
2019-03-25T10:04:48.927Z,992.70
2019-03-25T10:05:49.070Z,992.79
2019-03-25T10:06:49.243Z,992.83
2019-03-25T10:07:49.405Z,992.89
2019-03-25T10:08:49.573Z,992.76
2019-03-25T10:09:49.762Z,992.81
2019-03-25T10:10:49.896Z,992.82
2019-03-25T10:11:50.066Z,992.84
2019-03-25T10:12:50.348Z,992.83
2019-03-25T10:13:50.498Z,992.87
2019-03-25T10:14:50.585Z,992.84
2019-03-25T10:15:50.755Z,992.80
2019-03-25T10:16:50.944Z,992.80
2019-03-25T10:17:51.077Z,992.78
2019-03-25T10:18:51.258Z,992.74
2019-03-25T10:19:51.419Z,992.80
2019-03-25T10:20:51.592Z,992.74
2019-03-25T10:21:51.764Z,992.73
2019-03-25T10:22:51.952Z,992.79
2019-03-25T10:23:52.222Z,992.74
2019-03-25T10:24:52.267Z,992.69
2019-03-25T10:25:52.464Z,992.76
2019-03-25T10:26:52.595Z,992.69
2019-03-25T10:27:52.784Z,992.71
2019-03-25T10:28:52.922Z,992.76
2019-03-25T10:29:53.112Z,992.72
2019-03-25T10:30:53.257Z,992.75
2019-03-25T10:31:53.448Z,992.72
2019-03-25T10:32:53.577Z,992.77
2019-03-25T10:33:53.748Z,992.75
2019-03-25T10:34:53.928Z,992.74
2019-03-25T10:35:54.131Z,992.74
2019-03-25T10:36:54.261Z,992.85
2019-03-25T10:37:54.425Z,992.80
2019-03-25T10:38:54.592Z,992.87
2019-03-25T10:39:54.757Z,992.85
2019-03-25T10:40:54.931Z,992.90
2019-03-25T10:41:55.100Z,992.93
2019-03-25T10:42:55.274Z,993.06
2019-03-25T10:43:55.449Z,993.17
2019-03-25T10:44:55.608Z,993.18
2019-03-25T10:45:55.829Z,993.13
2019-03-25T10:46:55.954Z,993.03
2019-03-25T10:47:56.109Z,993.11
2019-03-25T10:48:56.288Z,993.08
2019-03-25T10:49:56.451Z,993.16
2019-03-25T10:50:56.621Z,993.18
2019-03-25T10:51:56.771Z,993.15
2019-03-25T10:52:57.032Z,993.13
2019-03-25T10:53:57.077Z,993.17
2019-03-25T10:55:57.423Z,993.22
2019-03-25T10:56:57.565Z,993.21
2019-03-25T10:57:57.724Z,993.19
2019-03-25T10:58:58.433Z,993.19
2019-03-25T10:59:58.042Z,993.16
2019-03-25T11:00:58.216Z,993.14
2019-03-25T11:01:58.418Z,993.19
2019-03-25T11:03:58.724Z,993.20
2019-03-25T11:04:58.912Z,993.13
2019-03-25T11:05:59.099Z,993.14
2019-03-25T11:06:59.320Z,993.11
2019-03-25T11:07:59.496Z,993.20
2019-03-25T11:08:59.638Z,993.12
2019-03-25T11:09:59.721Z,993.14
2019-03-25T11:10:59.907Z,993.16
2019-03-25T11:12:00.127Z,993.14
2019-03-25T11:13:00.234Z,993.02
2019-03-25T11:14:00.436Z,993.16
2019-03-25T11:15:00.709Z,993.09
2019-03-25T11:16:00.773Z,993.13
2019-03-25T11:17:00.988Z,993.11
2019-03-25T11:18:01.082Z,993.12
2019-03-25T11:19:01.215Z,993.06
2019-03-25T11:20:01.441Z,993.03
2019-03-25T11:21:01.564Z,993.04
2019-03-25T11:22:01.700Z,993.04
2019-03-25T11:23:01.875Z,993.05
2019-03-25T11:24:02.069Z,993.04
2019-03-25T11:25:02.688Z,993.10
2019-03-25T11:26:02.397Z,993.04
2019-03-25T11:27:02.600Z,993.00
2019-03-25T11:28:03.537Z,992.99
2019-03-25T11:29:08.565Z,993.06
2019-03-25T11:30:03.201Z,992.90
2019-03-25T11:31:03.464Z,992.97
2019-03-25T11:32:03.621Z,992.92
2019-03-25T11:33:05.258Z,992.95
2019-03-25T11:34:06.820Z,992.89
2019-03-25T11:35:05.807Z,993.04
2019-03-25T11:36:06.540Z,993.02
2019-03-25T11:37:05.518Z,993.02
2019-03-25T11:38:04.902Z,992.99
2019-03-25T11:39:04.947Z,993.01
2019-03-25T11:40:05.144Z,993.05
2019-03-25T11:41:05.336Z,992.92
2019-03-25T11:42:05.501Z,992.93
2019-03-25T11:43:05.623Z,992.85
2019-03-25T11:44:05.806Z,992.82
2019-03-25T11:45:06.049Z,992.76
2019-03-25T11:46:06.115Z,992.80
2019-03-25T11:47:06.235Z,992.80
2019-03-25T11:48:06.429Z,992.79
2019-03-25T11:49:06.560Z,992.79
2019-03-25T11:50:06.728Z,992.85
2019-03-25T11:51:06.915Z,992.94
2019-03-25T11:52:07.117Z,992.93
2019-03-25T11:53:07.302Z,992.91
2019-03-25T11:54:07.430Z,992.83
2019-03-25T11:55:07.615Z,992.92
2019-03-25T11:56:07.774Z,992.74
2019-03-25T11:57:07.925Z,992.72
2019-03-25T11:58:08.085Z,992.77
2019-03-25T11:59:18.090Z,992.79
2019-03-25T12:00:08.465Z,992.72
2019-03-25T12:01:08.562Z,992.83
2019-03-25T12:02:17.298Z,992.77
2019-03-25T12:03:08.973Z,992.71
2019-03-25T12:04:10.597Z,992.76
2019-03-25T12:05:09.253Z,992.82
2019-03-25T12:06:09.431Z,992.69
2019-03-25T12:07:09.587Z,992.71
2019-03-25T12:08:09.746Z,992.70
2019-03-25T12:09:09.889Z,992.63
2019-03-25T12:10:10.068Z,992.82
2019-03-25T12:11:10.531Z,992.76
2019-03-25T12:12:10.467Z,992.77
2019-03-25T12:13:10.691Z,992.81
2019-03-25T12:14:10.791Z,992.84
2019-03-25T12:15:10.970Z,992.92
2019-03-25T12:16:11.144Z,992.83
2019-03-25T12:17:11.347Z,992.86
2019-03-25T12:18:11.506Z,992.90
2019-03-25T12:19:11.651Z,992.96
2019-03-25T12:20:11.798Z,992.97
2019-03-25T12:21:11.959Z,993.28
2019-03-25T12:22:12.924Z,993.23
2019-03-25T12:23:12.329Z,993.22
2019-03-25T12:24:12.485Z,993.39
2019-03-25T12:25:12.711Z,993.40
2019-03-25T12:26:12.780Z,993.33
2019-03-25T12:27:12.961Z,993.32
2019-03-25T12:28:13.092Z,993.36
2019-03-25T12:29:13.260Z,993.37
2019-03-25T12:30:13.463Z,993.40
2019-03-25T12:31:13.616Z,993.42
2019-03-25T12:32:13.788Z,993.41
2019-03-25T12:33:13.945Z,993.42
2019-03-25T12:34:14.174Z,993.43
2019-03-25T12:35:14.254Z,993.45
2019-03-25T12:36:14.427Z,993.44
2019-03-25T12:37:14.590Z,993.30
2019-03-25T12:38:14.763Z,993.33
2019-03-25T12:39:14.915Z,993.38